Airport View

Enter AWOS ICAO identifier for current METAR.

ex. KFNL

PACZ 261142Z AUTO 15013G26KT 120V230 7SM -RA SCT009 BKN034 BKN055 13/12 A2982

26 Jun 2019 11:59

Phone: 907-552-2869

Other Area AWOS: PACM - PAHP - PAVA - PAMO

TAF PABE 260535Z 2606/2706 17011KT P6SM -SHRA SCT012 SCT025 OVC035 FM261200 14011KT P6SM -SHRA SCT019 BKN025 OVC050 FM261800 16016G24KT P6SM -SHRA SCT019 BKN025 OVC050